createdAt,value
2018-08-18T00:02:38.022Z,7.13
2018-08-18T00:05:40.328Z,7.33
2018-08-18T00:08:42.534Z,7.20
2018-08-18T00:11:44.772Z,7.20
2018-08-18T00:14:46.984Z,7.00
2018-08-18T00:17:49.194Z,6.90
2018-08-18T00:20:51.454Z,7.50
2018-08-18T00:24:16.462Z,7.70
2018-08-18T00:27:18.681Z,6.30
2018-08-18T00:30:25.886Z,7.33
2018-08-18T00:33:28.083Z,7.97
2018-08-18T00:36:30.383Z,7.47
2018-08-18T00:39:32.740Z,7.43
2018-08-18T00:42:35.061Z,7.30
2018-08-18T00:45:37.371Z,7.10
2018-08-18T00:48:39.591Z,7.87
2018-08-18T00:51:41.893Z,7.10
2018-08-18T00:54:44.113Z,7.17
2018-08-18T00:57:46.378Z,7.03
2018-08-18T01:00:54.352Z,6.40
2018-08-18T01:03:58.512Z,6.73
2018-08-18T01:07:02.106Z,6.47
2018-08-18T01:10:04.573Z,8.50
2018-08-18T01:13:06.892Z,7.47
2018-08-18T01:16:09.089Z,7.00
2018-08-18T01:19:11.339Z,7.27
2018-08-18T01:22:13.589Z,6.27
2018-08-18T01:25:15.858Z,6.87
2018-08-18T01:28:18.124Z,6.73
2018-08-18T01:31:22.040Z,7.00
2018-08-18T01:34:24.264Z,6.60
2018-08-18T01:37:26.593Z,7.13
2018-08-18T01:40:29.050Z,7.27
2018-08-18T01:43:31.290Z,7.27
2018-08-18T01:46:33.604Z,7.80
2018-08-18T01:49:36.606Z,6.83
2018-08-18T01:52:38.913Z,6.50
2018-08-18T01:55:41.322Z,7.97
2018-08-18T01:58:43.533Z,7.47
2018-08-18T02:01:46.034Z,6.63
2018-08-18T02:04:48.679Z,7.47
2018-08-18T02:07:50.915Z,7.50
2018-08-18T02:10:53.217Z,6.33
2018-08-18T02:13:56.233Z,5.70
2018-08-18T02:17:10.802Z,7.83
2018-08-18T02:20:12.990Z,7.37
2018-08-18T02:23:15.220Z,5.90
2018-08-18T02:26:17.497Z,6.07
2018-08-18T02:29:19.685Z,6.17
2018-08-18T02:32:27.722Z,6.27
2018-08-18T02:35:30.065Z,7.03
2018-08-18T02:38:32.264Z,7.17
2018-08-18T02:41:35.026Z,6.57
2018-08-18T02:44:37.246Z,6.50
2018-08-18T02:47:39.558Z,6.13
2018-08-18T02:50:47.664Z,6.77
2018-08-18T02:53:50.012Z,6.63
2018-08-18T02:56:52.295Z,6.77
2018-08-18T02:59:56.104Z,6.23
2018-08-18T03:02:58.342Z,7.00
2018-08-18T03:06:06.235Z,7.30
2018-08-18T03:09:09.463Z,7.87
2018-08-18T03:12:11.962Z,7.53
2018-08-18T03:15:28.862Z,7.40
2018-08-18T03:18:53.453Z,8.07
2018-08-18T03:21:56.717Z,8.17
2018-08-18T03:24:58.948Z,7.87
2018-08-18T03:28:01.171Z,7.67
2018-08-18T03:31:04.173Z,8.90
2018-08-18T03:34:07.048Z,7.60
2018-08-18T03:37:24.488Z,8.20
2018-08-18T03:40:26.750Z,8.17
2018-08-18T03:43:29.090Z,8.50
2018-08-18T03:46:31.385Z,8.27
2018-08-18T03:49:33.794Z,8.40
2018-08-18T03:52:35.985Z,8.77
2018-08-18T03:55:38.285Z,8.97
2018-08-18T03:58:50.821Z,8.47
2018-08-18T04:01:54.012Z,9.50
2018-08-18T04:05:00.912Z,10.47
2018-08-18T04:08:03.124Z,8.47
2018-08-18T04:11:05.274Z,10.03
2018-08-18T04:14:08.036Z,9.47
2018-08-18T04:17:22.061Z,9.17
2018-08-18T04:20:24.374Z,10.20
2018-08-18T04:23:26.594Z,8.47
2018-08-18T04:26:29.504Z,9.63
2018-08-18T04:29:31.786Z,9.50
2018-08-18T04:32:46.059Z,10.00
2018-08-18T04:35:52.842Z,10.73
2018-08-18T04:38:55.017Z,9.13
2018-08-18T04:41:57.188Z,8.90
2018-08-18T04:44:59.455Z,8.43
2018-08-18T04:48:01.621Z,8.80
2018-08-18T04:51:03.886Z,10.33
2018-08-18T04:54:06.630Z,8.80
2018-08-18T04:57:08.877Z,9.27
2018-08-18T05:00:13.140Z,9.07
2018-08-18T05:03:15.437Z,9.30
2018-08-18T05:06:22.035Z,7.80
2018-08-18T05:09:24.468Z,7.60
2018-08-18T05:12:26.761Z,6.80
2018-08-18T05:15:29.204Z,7.30
2018-08-18T05:18:31.367Z,5.50
2018-08-18T05:21:33.577Z,6.73
2018-08-18T05:24:35.791Z,6.00
2018-08-18T05:27:38.078Z,6.67
2018-08-18T05:30:40.586Z,7.30
2018-08-18T05:33:42.776Z,7.03
2018-08-18T05:36:45.074Z,7.33
2018-08-18T05:39:47.373Z,7.20
2018-08-18T05:42:49.686Z,7.50
2018-08-18T05:45:51.919Z,7.10
2018-08-18T05:48:54.878Z,8.23
2018-08-18T05:51:57.252Z,7.17
2018-08-18T05:54:59.552Z,7.17
2018-08-18T05:58:01.798Z,7.33
2018-08-18T06:01:14.506Z,9.00
2018-08-18T06:04:18.107Z,8.80
2018-08-18T06:07:20.473Z,7.60
2018-08-18T06:10:22.816Z,8.37
2018-08-18T06:13:25.008Z,10.27
2018-08-18T06:16:27.304Z,9.67
2018-08-18T06:19:29.498Z,10.30
2018-08-18T06:22:31.719Z,11.17
2018-08-18T06:25:34.146Z,11.50
2018-08-18T06:28:36.386Z,11.63
2018-08-18T06:31:56.274Z,10.93
2018-08-18T06:34:58.500Z,11.57
2018-08-18T06:38:01.007Z,11.17
2018-08-18T06:41:03.559Z,11.77
2018-08-18T06:44:05.818Z,12.77
2018-08-18T06:47:08.010Z,11.93
2018-08-18T06:50:12.191Z,11.33
2018-08-18T06:53:14.484Z,11.97
2018-08-18T06:56:16.809Z,11.47
2018-08-18T06:59:18.964Z,12.73
2018-08-18T07:02:24.293Z,12.07
2018-08-18T07:05:26.424Z,11.90
2018-08-18T07:08:28.834Z,12.70
2018-08-18T07:11:30.949Z,12.57
2018-08-18T07:14:33.258Z,11.90
2018-08-18T07:17:35.534Z,11.93
2018-08-18T07:20:37.921Z,11.77
2018-08-18T07:23:40.148Z,12.07
2018-08-18T07:26:42.361Z,12.07
2018-08-18T07:29:48.853Z,11.77
2018-08-18T07:32:51.153Z,11.03
2018-08-18T07:35:54.677Z,11.10
2018-08-18T07:38:56.806Z,10.73
2018-08-18T07:41:58.977Z,11.27
2018-08-18T07:45:01.237Z,10.73
2018-08-18T07:48:04.283Z,10.70
2018-08-18T07:51:06.514Z,10.50
2018-08-18T07:54:08.644Z,10.90
2018-08-18T07:57:10.797Z,10.80
2018-08-18T08:00:13.051Z,9.50
2018-08-18T08:03:16.051Z,9.03
2018-08-18T08:06:18.242Z,9.70
2018-08-18T08:09:20.525Z,8.53
2018-08-18T08:12:22.721Z,9.47
2018-08-18T08:15:24.916Z,10.27
2018-08-18T08:18:27.112Z,8.37
2018-08-18T08:21:29.317Z,8.30
2018-08-18T08:24:31.524Z,9.20
2018-08-18T08:27:33.756Z,7.47
2018-08-18T08:30:35.997Z,8.00
2018-08-18T08:33:38.476Z,7.77
2018-08-18T08:36:40.659Z,8.57
2018-08-18T08:39:43.761Z,6.97
2018-08-18T08:42:46.086Z,6.07
2018-08-18T08:45:48.331Z,7.90
2018-08-18T08:48:53.019Z,7.03
2018-08-18T08:51:55.330Z,6.90
2018-08-18T08:54:57.573Z,6.07
2018-08-18T08:58:00.008Z,6.83
2018-08-18T09:01:02.260Z,6.40
2018-08-18T09:04:04.491Z,5.63
2018-08-18T09:07:08.040Z,5.80
2018-08-18T09:10:12.021Z,5.70
2018-08-18T09:13:14.216Z,7.57
2018-08-18T09:16:16.544Z,6.47
2018-08-18T09:19:20.574Z,6.10
2018-08-18T09:22:23.102Z,7.23
2018-08-18T09:25:27.672Z,6.23
2018-08-18T09:28:30.070Z,7.00
2018-08-18T09:31:32.274Z,5.10
2018-08-18T09:34:40.124Z,5.50
2018-08-18T09:37:47.116Z,5.50
2018-08-18T09:40:51.568Z,5.40
2018-08-18T09:43:53.856Z,5.77
2018-08-18T09:46:56.791Z,4.53
2018-08-18T09:49:59.114Z,5.47
2018-08-18T09:53:01.365Z,5.33
2018-08-18T09:56:03.561Z,5.80
2018-08-18T09:59:05.877Z,5.83
2018-08-18T10:02:09.676Z,5.40
2018-08-18T10:05:12.075Z,4.90
2018-08-18T10:08:14.541Z,4.40
2018-08-18T10:11:17.175Z,4.80
2018-08-18T10:14:19.456Z,5.10
2018-08-18T10:17:21.785Z,4.90
2018-08-18T10:20:24.004Z,4.90
2018-08-18T10:23:26.226Z,5.20
2018-08-18T10:26:28.623Z,4.43
2018-08-18T10:29:30.925Z,5.07
2018-08-18T10:32:37.753Z,5.40
2018-08-18T10:35:41.037Z,5.17
2018-08-18T10:38:43.356Z,5.30
2018-08-18T10:41:56.999Z,5.30
2018-08-18T10:45:03.577Z,5.83
2018-08-18T10:48:05.950Z,4.50
2018-08-18T10:51:28.236Z,3.97
2018-08-18T10:54:30.567Z,4.13
2018-08-18T10:57:45.422Z,3.80
2018-08-18T11:00:47.733Z,3.10
2018-08-18T11:03:50.450Z,4.00
2018-08-18T11:06:52.814Z,3.43
2018-08-18T11:09:55.316Z,3.63
2018-08-18T11:12:57.597Z,3.53
2018-08-18T11:15:59.970Z,3.43
2018-08-18T11:19:02.264Z,2.83
2018-08-18T11:22:15.803Z,3.10
2018-08-18T11:25:19.860Z,3.00
2018-08-18T11:28:22.714Z,3.50
2018-08-18T11:31:24.943Z,2.50
2018-08-18T11:34:27.254Z,2.93
2018-08-18T11:37:29.551Z,2.80
2018-08-18T11:40:31.934Z,3.43
2018-08-18T11:43:51.404Z,2.50
2018-08-18T11:46:53.680Z,2.43
2018-08-18T11:49:55.969Z,2.33
2018-08-18T11:52:58.250Z,2.73
2018-08-18T11:56:00.467Z,2.93
2018-08-18T11:59:11.787Z,2.90
2018-08-18T12:02:14.100Z,2.67
2018-08-18T12:05:16.285Z,2.70
2018-08-18T12:08:19.415Z,3.00
2018-08-18T12:11:21.692Z,3.17
2018-08-18T12:14:23.999Z,3.00
2018-08-18T12:17:26.277Z,2.70
2018-08-18T12:20:28.684Z,3.17
2018-08-18T12:23:31.381Z,2.23
2018-08-18T12:26:33.741Z,1.50
2018-08-18T12:29:36.009Z,1.67
2018-08-18T12:32:38.175Z,2.30
2018-08-18T12:35:41.119Z,1.77
2018-08-18T12:38:45.924Z,1.63
2018-08-18T12:41:48.229Z,1.50
2018-08-18T12:44:50.539Z,2.37
2018-08-18T12:48:09.501Z,1.47
2018-08-18T12:51:12.904Z,1.10
2018-08-18T12:54:15.219Z,1.47
2018-08-18T12:57:29.712Z,1.80
2018-08-18T13:00:31.947Z,1.83
2018-08-18T13:03:34.118Z,2.03
2018-08-18T13:06:40.761Z,2.13
2018-08-18T13:09:43.098Z,2.40
2018-08-18T13:12:45.388Z,1.77
2018-08-18T13:15:49.469Z,2.20
2018-08-18T13:18:51.654Z,1.60
2018-08-18T13:21:54.960Z,1.30
2018-08-18T13:24:58.147Z,1.77
2018-08-18T13:28:02.572Z,1.40
2018-08-18T13:31:04.872Z,1.80
2018-08-18T13:34:08.141Z,2.00
2018-08-18T13:37:10.391Z,1.93
2018-08-18T13:40:13.078Z,1.40
2018-08-18T13:43:15.315Z,1.67
2018-08-18T13:46:19.407Z,1.27
2018-08-18T13:49:24.060Z,1.23
2018-08-18T13:52:29.008Z,1.50
2018-08-18T13:55:36.545Z,6.27
2018-08-18T13:58:38.888Z,1.80
2018-08-18T14:01:42.417Z,2.13
2018-08-18T14:04:44.809Z,1.60
2018-08-18T14:07:53.703Z,1.90
2018-08-18T14:10:55.996Z,2.90
2018-08-18T14:14:00.492Z,1.23
2018-08-18T14:17:02.799Z,1.53
2018-08-18T14:20:05.214Z,1.30
2018-08-18T14:23:08.016Z,1.60
2018-08-18T14:26:10.387Z,1.50
2018-08-18T14:29:13.024Z,0.90
2018-08-18T14:32:23.787Z,1.50
2018-08-18T14:35:26.060Z,1.40
2018-08-18T14:38:28.257Z,1.20
2018-08-18T14:41:38.152Z,1.30
2018-08-18T14:44:40.387Z,1.20
2018-08-18T14:47:42.773Z,1.03
2018-08-18T14:50:45.069Z,1.40
2018-08-18T14:53:47.444Z,1.40
2018-08-18T14:56:49.740Z,1.17
2018-08-18T14:59:52.181Z,1.17
2018-08-18T15:02:54.516Z,1.20
2018-08-18T15:05:56.809Z,1.00
2018-08-18T15:08:59.106Z,1.10
2018-08-18T15:12:02.102Z,1.40
2018-08-18T15:15:04.509Z,1.10
2018-08-18T15:18:09.685Z,1.27
2018-08-18T15:21:12.002Z,1.20
2018-08-18T15:24:14.296Z,1.30
2018-08-18T15:27:16.689Z,1.20
2018-08-18T15:30:19.282Z,1.43
2018-08-18T15:33:22.943Z,1.20
2018-08-18T15:36:31.889Z,1.33
2018-08-18T15:39:34.084Z,1.13
2018-08-18T15:42:36.465Z,1.10
2018-08-18T15:45:57.074Z,1.30
2018-08-18T15:48:59.380Z,1.30
2018-08-18T15:52:01.645Z,1.17
2018-08-18T15:55:04.618Z,1.00
2018-08-18T15:58:06.932Z,1.20
2018-08-18T16:01:09.145Z,1.00
2018-08-18T16:04:11.498Z,1.00
2018-08-18T16:07:13.723Z,1.07
2018-08-18T16:10:16.004Z,1.60
2018-08-18T16:13:18.237Z,1.70
2018-08-18T16:16:20.603Z,1.20
2018-08-18T16:19:23.080Z,1.53
2018-08-18T16:22:25.325Z,1.13
2018-08-18T16:25:35.380Z,1.20
2018-08-18T16:28:38.091Z,1.40
2018-08-18T16:31:40.277Z,1.20
2018-08-18T16:34:44.223Z,1.60
2018-08-18T16:37:46.564Z,1.40
2018-08-18T16:40:48.781Z,1.60
2018-08-18T16:43:51.093Z,1.20
2018-08-18T16:46:53.451Z,1.20
2018-08-18T16:49:55.740Z,1.23
2018-08-18T16:52:59.392Z,0.97
2018-08-18T16:56:01.682Z,1.43
2018-08-18T16:59:03.948Z,1.43
2018-08-18T17:02:13.445Z,1.20
2018-08-18T17:05:15.706Z,1.30
2018-08-18T17:08:17.956Z,1.47
2018-08-18T17:11:21.233Z,1.30
2018-08-18T17:14:23.718Z,1.33
2018-08-18T17:17:26.278Z,1.20
2018-08-18T17:20:28.640Z,1.10
2018-08-18T17:23:32.134Z,1.20
2018-08-18T17:26:34.353Z,1.50
2018-08-18T17:29:38.295Z,1.37
2018-08-18T17:32:40.423Z,1.10
2018-08-18T17:35:42.723Z,1.20
2018-08-18T17:38:45.138Z,1.20
2018-08-18T17:41:47.397Z,1.50
2018-08-18T17:44:49.699Z,1.27
2018-08-18T17:47:52.893Z,1.40
2018-08-18T17:50:55.485Z,1.30
2018-08-18T17:53:57.654Z,1.30
2018-08-18T17:57:00.021Z,1.33
2018-08-18T18:00:07.944Z,1.40
2018-08-18T18:03:10.291Z,1.40
2018-08-18T18:06:12.511Z,1.30
2018-08-18T18:09:14.720Z,1.20
2018-08-18T18:12:25.608Z,1.77
2018-08-18T18:15:30.592Z,1.10
2018-08-18T18:18:38.489Z,1.40
2018-08-18T18:21:41.616Z,1.33
2018-08-18T18:24:43.865Z,1.23
2018-08-18T18:27:46.291Z,1.30
2018-08-18T18:30:51.229Z,1.17
2018-08-18T18:34:08.596Z,1.43
2018-08-18T18:37:10.979Z,1.37
2018-08-18T18:40:13.309Z,1.43
2018-08-18T18:43:15.518Z,1.30
2018-08-18T18:46:17.765Z,1.43
2018-08-18T18:49:30.126Z,1.43
2018-08-18T18:52:32.352Z,1.70
2018-08-18T18:55:40.631Z,1.50
2018-08-18T18:58:42.983Z,1.67
2018-08-18T19:01:45.342Z,1.37
2018-08-18T19:04:47.556Z,1.40
2018-08-18T19:08:04.915Z,2.00
2018-08-18T19:11:07.308Z,1.90
2018-08-18T19:14:09.649Z,1.40
2018-08-18T19:17:12.007Z,1.30
2018-08-18T19:20:19.284Z,1.60
2018-08-18T19:23:21.493Z,1.37
2018-08-18T19:26:23.803Z,1.50
2018-08-18T19:29:27.043Z,2.13
2018-08-18T19:32:29.451Z,2.00
2018-08-18T19:35:36.446Z,1.60
2018-08-18T19:38:38.690Z,1.97
2018-08-18T19:41:40.932Z,1.40
2018-08-18T19:44:44.591Z,2.23
2018-08-18T19:47:46.910Z,1.60
2018-08-18T19:50:55.835Z,1.67
2018-08-18T19:53:58.176Z,1.83
2018-08-18T19:57:00.373Z,1.60
2018-08-18T20:00:26.348Z,1.90
2018-08-18T20:03:28.570Z,1.20
2018-08-18T20:06:30.837Z,1.70
2018-08-18T20:09:33.153Z,1.87
2018-08-18T20:12:35.470Z,1.97
2018-08-18T20:15:37.866Z,2.20
2018-08-18T20:18:40.266Z,1.73
2018-08-18T20:21:42.519Z,1.97
2018-08-18T20:24:44.778Z,1.57
2018-08-18T20:27:47.062Z,1.87
2018-08-18T20:30:49.483Z,1.80
2018-08-18T20:33:51.766Z,1.60
2018-08-18T20:36:54.110Z,1.33
2018-08-18T20:39:56.449Z,1.90
2018-08-18T20:42:58.754Z,1.93
2018-08-18T20:46:01.178Z,1.53
2018-08-18T20:49:03.550Z,1.83
2018-08-18T20:52:06.821Z,1.87
2018-08-18T20:55:09.533Z,1.53
2018-08-18T20:58:12.119Z,1.70
2018-08-18T21:01:14.336Z,2.00
2018-08-18T21:04:17.138Z,1.80
2018-08-18T21:07:19.707Z,1.40
2018-08-18T21:10:21.974Z,1.57
2018-08-18T21:13:24.674Z,2.00
2018-08-18T21:16:27.006Z,2.00
2018-08-18T21:19:29.256Z,1.63
2018-08-18T21:22:32.091Z,1.63
2018-08-18T21:25:48.240Z,1.90
2018-08-18T21:28:52.579Z,1.50
2018-08-18T21:31:54.906Z,1.70
2018-08-18T21:34:57.140Z,1.60
2018-08-18T21:37:59.429Z,1.57
2018-08-18T21:41:01.712Z,1.40
2018-08-18T21:44:04.753Z,1.50
2018-08-18T21:47:07.126Z,1.30
2018-08-18T21:50:09.433Z,1.40
2018-08-18T21:53:13.231Z,1.70
2018-08-18T21:56:15.576Z,1.20
2018-08-18T21:59:17.758Z,1.40
2018-08-18T22:02:32.327Z,1.37
2018-08-18T22:05:34.496Z,1.47
2018-08-18T22:08:36.940Z,1.53
2018-08-18T22:11:39.171Z,1.47
2018-08-18T22:14:41.440Z,1.47
2018-08-18T22:17:43.997Z,1.30
2018-08-18T22:20:46.197Z,1.33
2018-08-18T22:23:48.575Z,1.40
2018-08-18T22:26:50.952Z,1.20
2018-08-18T22:29:53.278Z,1.20
2018-08-18T22:32:55.670Z,1.47
2018-08-18T22:35:58.081Z,1.50
2018-08-18T22:39:00.764Z,1.47
2018-08-18T22:42:03.136Z,1.30
2018-08-18T22:45:16.776Z,1.50
2018-08-18T22:48:19.121Z,1.33
2018-08-18T22:51:21.501Z,1.60
2018-08-18T22:54:23.906Z,1.20
2018-08-18T22:57:26.165Z,1.47
2018-08-18T23:00:28.589Z,1.67
2018-08-18T23:03:32.519Z,1.57
2018-08-18T23:06:35.878Z,1.50
2018-08-18T23:09:38.153Z,1.40
2018-08-18T23:12:40.727Z,1.63
2018-08-18T23:15:47.612Z,1.23
2018-08-18T23:18:49.926Z,1.23
2018-08-18T23:21:52.124Z,1.43
2018-08-18T23:24:54.399Z,1.60
2018-08-18T23:27:56.863Z,1.47
2018-08-18T23:30:59.152Z,1.60
2018-08-18T23:34:01.574Z,1.23
2018-08-18T23:37:04.551Z,2.07
2018-08-18T23:40:06.966Z,1.23
2018-08-18T23:43:09.318Z,1.67
2018-08-18T23:46:11.706Z,1.60
2018-08-18T23:49:14.131Z,2.23
2018-08-18T23:52:16.589Z,1.73
2018-08-18T23:55:18.948Z,1.70
2018-08-18T23:58:21.732Z,1.70
